createdAt,value
2019-05-03T00:00:14.581Z,0.00
2019-05-03T00:01:14.513Z,0.00
2019-05-03T00:02:14.483Z,0.00
2019-05-03T00:03:14.477Z,0.00
2019-05-03T00:04:14.457Z,0.00
2019-05-03T00:05:14.445Z,0.00
2019-05-03T00:06:14.458Z,0.00
2019-05-03T00:07:14.422Z,0.00
2019-05-03T00:08:14.413Z,0.00
2019-05-03T00:09:14.399Z,0.00
2019-05-03T00:10:14.392Z,0.00
2019-05-03T00:11:14.376Z,0.00
2019-05-03T00:12:14.385Z,0.00
2019-05-03T00:13:14.354Z,0.00
2019-05-03T00:14:14.343Z,0.00
2019-05-03T00:15:14.334Z,0.00
2019-05-03T00:16:14.322Z,0.00
2019-05-03T00:17:14.326Z,0.00
2019-05-03T00:18:14.296Z,0.00
2019-05-03T00:19:14.286Z,0.00
2019-05-03T00:20:14.273Z,0.00
2019-05-03T00:21:14.263Z,0.00
2019-05-03T00:22:14.268Z,0.00
2019-05-03T00:23:14.237Z,0.00
2019-05-03T00:24:14.224Z,0.00
2019-05-03T00:25:14.213Z,0.00
2019-05-03T00:26:14.203Z,0.00
2019-05-03T00:27:14.213Z,0.00
2019-05-03T00:28:14.180Z,0.00
2019-05-03T00:29:14.168Z,0.00
2019-05-03T00:30:14.154Z,0.00
2019-05-03T00:31:14.147Z,0.00
2019-05-03T00:32:14.133Z,0.00
2019-05-03T00:33:14.140Z,0.00
2019-05-03T00:34:14.112Z,0.00
2019-05-03T00:35:14.103Z,0.00
2019-05-03T00:36:14.087Z,0.00
2019-05-03T00:37:17.286Z,0.00
2019-05-03T00:38:14.082Z,0.00
2019-05-03T00:39:14.050Z,0.00
2019-05-03T00:40:14.042Z,0.00
2019-05-03T00:41:14.029Z,0.00
2019-05-03T00:42:14.037Z,0.00
2019-05-03T00:43:14.006Z,0.00
2019-05-03T00:44:13.996Z,0.00
2019-05-03T00:45:13.983Z,0.00
2019-05-03T00:46:13.970Z,0.00
2019-05-03T00:47:13.979Z,0.00
2019-05-03T00:48:13.950Z,0.00
2019-05-03T00:49:13.935Z,0.00
2019-05-03T00:50:13.924Z,0.00
2019-05-03T00:51:13.913Z,0.00
2019-05-03T00:52:13.920Z,0.00
2019-05-03T00:53:13.889Z,0.00
2019-05-03T00:54:13.880Z,0.00
2019-05-03T00:55:17.123Z,0.00
2019-05-03T00:56:14.864Z,0.00
2019-05-03T00:57:13.862Z,0.00
2019-05-03T00:58:13.831Z,0.00
2019-05-03T00:59:13.819Z,0.00
2019-05-03T01:00:13.813Z,0.00
2019-05-03T01:01:13.806Z,0.00
2019-05-03T01:02:13.809Z,0.00
2019-05-03T01:03:13.772Z,0.00
2019-05-03T01:04:13.764Z,0.00
2019-05-03T01:05:13.752Z,0.00
2019-05-03T01:06:13.740Z,0.00
2019-05-03T01:07:13.727Z,0.00
2019-05-03T01:08:13.734Z,0.00
2019-05-03T01:09:13.707Z,0.00
2019-05-03T01:10:13.694Z,0.00
2019-05-03T01:11:13.692Z,0.00
2019-05-03T01:12:13.670Z,0.00
2019-05-03T01:13:13.682Z,0.00
2019-05-03T01:14:13.650Z,0.00
2019-05-03T01:15:13.634Z,0.00
2019-05-03T01:16:13.622Z,0.00
2019-05-03T01:17:13.611Z,0.00
2019-05-03T01:18:13.598Z,0.00
2019-05-03T01:19:13.608Z,0.00
2019-05-03T01:20:13.576Z,0.00
2019-05-03T01:21:13.565Z,0.00
2019-05-03T01:22:13.552Z,0.00
2019-05-03T01:23:13.545Z,0.00
2019-05-03T01:24:13.550Z,0.00
2019-05-03T01:25:13.518Z,0.00
2019-05-03T01:26:13.508Z,0.00
2019-05-03T01:27:13.497Z,0.00
2019-05-03T01:28:13.481Z,0.00
2019-05-03T01:29:13.490Z,0.00
2019-05-03T01:30:13.458Z,0.00
2019-05-03T01:31:13.447Z,0.00
2019-05-03T01:32:13.436Z,0.00
2019-05-03T01:33:13.425Z,0.00
2019-05-03T01:34:13.430Z,0.00
2019-05-03T01:35:13.402Z,0.00
2019-05-03T01:36:13.390Z,0.00
2019-05-03T01:37:13.382Z,0.00
2019-05-03T01:38:13.365Z,0.00
2019-05-03T01:39:13.373Z,0.00
2019-05-03T01:40:13.344Z,0.00
2019-05-03T01:41:13.332Z,0.00
2019-05-03T01:42:13.320Z,0.00
2019-05-03T01:43:13.308Z,0.00
2019-05-03T01:44:13.315Z,0.00
2019-05-03T01:45:13.285Z,0.00
2019-05-03T01:46:13.273Z,0.00
2019-05-03T01:47:13.275Z,0.00
2019-05-03T01:48:13.250Z,0.00
2019-05-03T01:49:13.256Z,0.00
2019-05-03T01:50:13.228Z,0.00
2019-05-03T01:51:13.213Z,0.00
2019-05-03T01:52:13.201Z,0.00
2019-05-03T01:53:13.192Z,0.00
2019-05-03T01:54:13.181Z,0.00
2019-05-03T01:55:15.838Z,0.00
2019-05-03T01:56:13.157Z,0.00
2019-05-03T01:57:13.145Z,0.00
2019-05-03T01:58:13.132Z,0.00
2019-05-03T01:59:13.119Z,0.00
2019-05-03T02:00:13.129Z,0.00
2019-05-03T02:01:13.098Z,0.00
2019-05-03T02:02:13.087Z,0.00
2019-05-03T02:03:13.076Z,0.00
2019-05-03T02:04:13.062Z,0.00
2019-05-03T02:05:13.072Z,0.00
2019-05-03T02:06:13.048Z,0.00
2019-05-03T02:07:13.029Z,0.00
2019-05-03T02:08:13.014Z,0.00
2019-05-03T02:09:13.005Z,0.00
2019-05-03T02:10:13.010Z,0.00
2019-05-03T02:11:12.982Z,0.00
2019-05-03T02:12:12.971Z,0.00
2019-05-03T02:13:12.957Z,0.00
2019-05-03T02:14:12.946Z,0.00
2019-05-03T02:15:12.958Z,0.00
2019-05-03T02:16:12.924Z,0.00
2019-05-03T02:17:12.941Z,0.00
2019-05-03T02:18:14.976Z,0.00
2019-05-03T02:19:12.887Z,0.00
2019-05-03T02:20:12.877Z,0.00
2019-05-03T02:21:12.886Z,0.00
2019-05-03T02:22:12.852Z,0.00
2019-05-03T02:23:12.842Z,0.00
2019-05-03T02:24:12.832Z,0.00
2019-05-03T02:25:12.827Z,0.00
2019-05-03T02:26:12.824Z,0.00
2019-05-03T02:27:12.873Z,0.00
2019-05-03T02:28:12.783Z,0.00
2019-05-03T02:29:12.773Z,0.00
2019-05-03T02:30:14.258Z,0.00
2019-05-03T02:31:13.644Z,0.00
2019-05-03T02:32:13.390Z,0.00
2019-05-03T02:33:13.623Z,0.00
2019-05-03T02:34:12.755Z,0.00
2019-05-03T02:35:14.009Z,0.00
2019-05-03T02:36:13.570Z,0.00
2019-05-03T02:37:13.849Z,0.00
2019-05-03T02:38:13.195Z,0.00
2019-05-03T02:39:13.612Z,0.00
2019-05-03T02:40:13.091Z,0.00
2019-05-03T02:41:13.483Z,0.00
2019-05-03T02:42:15.826Z,0.00
2019-05-03T02:43:12.606Z,0.00
2019-05-03T02:44:15.473Z,0.00
2019-05-03T02:45:15.312Z,0.00
2019-05-03T02:46:12.597Z,0.00
2019-05-03T02:47:12.561Z,0.00
2019-05-03T02:48:12.550Z,0.00
2019-05-03T02:49:15.209Z,0.00
2019-05-03T02:50:12.528Z,0.00
2019-05-03T02:51:15.429Z,0.00
2019-05-03T02:52:15.016Z,0.00
2019-05-03T02:53:12.492Z,0.00
2019-05-03T02:54:12.483Z,0.00
2019-05-03T02:55:15.680Z,0.00
2019-05-03T02:56:21.058Z,0.00
2019-05-03T02:57:15.037Z,0.00
2019-05-03T02:58:12.434Z,0.00
2019-05-03T02:59:15.459Z,0.00
2019-05-03T03:00:12.413Z,0.00
2019-05-03T03:01:12.400Z,0.00
2019-05-03T03:02:15.070Z,0.00
2019-05-03T03:03:16.007Z,0.00
2019-05-03T03:04:12.365Z,0.00
2019-05-03T03:05:12.350Z,0.00
2019-05-03T03:06:12.339Z,0.00
2019-05-03T03:07:15.015Z,0.00
2019-05-03T03:08:12.339Z,0.00
2019-05-03T03:09:12.310Z,0.00
2019-05-03T03:10:12.305Z,0.00
2019-05-03T03:11:12.294Z,0.00
2019-05-03T03:12:15.115Z,0.00
2019-05-03T03:13:12.278Z,0.00
2019-05-03T03:14:12.249Z,0.00
2019-05-03T03:15:12.234Z,0.00
2019-05-03T03:16:12.226Z,0.00
2019-05-03T03:17:12.211Z,0.00
2019-05-03T03:18:12.222Z,0.00
2019-05-03T03:19:12.191Z,0.00
2019-05-03T03:20:12.175Z,0.00
2019-05-03T03:21:12.165Z,0.00
2019-05-03T03:22:12.154Z,0.00
2019-05-03T03:23:17.313Z,0.00
2019-05-03T03:24:13.141Z,0.00
2019-05-03T03:25:12.122Z,0.00
2019-05-03T03:26:12.107Z,0.00
2019-05-03T03:27:12.103Z,0.00
2019-05-03T03:28:12.103Z,4.00
2019-05-03T03:29:12.073Z,4.00
2019-05-03T03:30:12.061Z,0.00
2019-05-03T03:31:12.052Z,4.00
2019-05-03T03:32:12.039Z,4.00
2019-05-03T03:33:12.052Z,4.00
2019-05-03T03:34:12.014Z,4.00
2019-05-03T03:35:13.216Z,4.00
2019-05-03T03:36:42.211Z,4.00
2019-05-03T03:37:15.379Z,4.00
2019-05-03T03:38:11.969Z,4.00
2019-05-03T03:39:11.973Z,4.00
2019-05-03T03:40:11.946Z,4.00
2019-05-03T03:41:11.932Z,4.00
2019-05-03T03:42:11.922Z,4.00
2019-05-03T03:43:11.912Z,4.00
2019-05-03T03:44:11.915Z,4.00
2019-05-03T03:45:11.889Z,8.00
2019-05-03T03:46:11.876Z,8.00
2019-05-03T03:47:11.861Z,8.00
2019-05-03T03:48:11.853Z,12.00
2019-05-03T03:49:11.857Z,16.00
2019-05-03T03:50:11.830Z,16.00
2019-05-03T03:51:11.821Z,20.00
2019-05-03T03:52:11.803Z,20.00
2019-05-03T03:53:11.797Z,20.00
2019-05-03T03:54:11.822Z,20.00
2019-05-03T03:55:11.772Z,16.00
2019-05-03T03:56:11.759Z,16.00
2019-05-03T03:57:11.745Z,16.00
2019-05-03T03:58:11.733Z,20.00
2019-05-03T03:59:18.777Z,24.00
2019-05-03T04:00:11.715Z,28.00
2019-05-03T04:01:11.700Z,28.00
2019-05-03T04:02:11.695Z,36.00
2019-05-03T04:03:11.679Z,36.00
2019-05-03T04:04:11.667Z,48.00
2019-05-03T04:05:11.673Z,56.00
2019-05-03T04:06:11.645Z,60.00
2019-05-03T04:07:11.636Z,64.00
2019-05-03T04:08:11.616Z,64.00
2019-05-03T04:09:11.606Z,64.00
2019-05-03T04:10:11.614Z,76.00
2019-05-03T04:11:11.583Z,84.00
2019-05-03T04:12:11.574Z,92.00
2019-05-03T04:13:11.559Z,100.00
2019-05-03T04:14:11.549Z,124.00
2019-05-03T04:15:11.555Z,160.00
2019-05-03T04:16:11.525Z,180.00
2019-05-03T04:17:11.514Z,184.00
2019-05-03T04:18:11.508Z,184.00
2019-05-03T04:19:11.493Z,172.00
2019-05-03T04:20:11.498Z,164.00
2019-05-03T04:21:11.468Z,172.00
2019-05-03T04:22:11.456Z,180.00
2019-05-03T04:23:11.446Z,204.00
2019-05-03T04:24:11.431Z,260.00
2019-05-03T04:25:11.422Z,356.00
2019-05-03T04:26:11.429Z,428.00
2019-05-03T04:27:22.273Z,468.00
2019-05-03T04:28:12.386Z,484.00
2019-05-03T04:29:11.373Z,524.00
2019-05-03T04:30:11.367Z,560.00
2019-05-03T04:31:11.373Z,612.00
2019-05-03T04:32:11.340Z,676.00
2019-05-03T04:33:11.333Z,732.00
2019-05-03T04:34:11.315Z,804.00
2019-05-03T04:35:11.305Z,836.00
2019-05-03T04:36:11.314Z,784.00
2019-05-03T04:37:11.280Z,680.00
2019-05-03T04:38:11.269Z,616.00
2019-05-03T04:39:11.259Z,660.00
2019-05-03T04:40:11.246Z,756.00
2019-05-03T04:41:11.238Z,916.00
2019-05-03T04:42:11.242Z,1064.00
2019-05-03T04:43:11.211Z,1096.00
2019-05-03T04:44:11.204Z,1012.00
2019-05-03T04:45:11.192Z,948.00
2019-05-03T04:46:11.179Z,1016.00
2019-05-03T04:47:11.184Z,1220.00
2019-05-03T04:48:11.155Z,1440.00
2019-05-03T04:49:11.146Z,1664.00
2019-05-03T04:50:11.133Z,1904.00
2019-05-03T04:51:11.120Z,2136.00
2019-05-03T04:52:11.149Z,2340.00
2019-05-03T04:53:11.113Z,2556.00
2019-05-03T04:54:11.086Z,2864.00
2019-05-03T04:55:11.075Z,3088.00
2019-05-03T04:56:11.062Z,3176.00
2019-05-03T04:57:11.054Z,3196.00
2019-05-03T04:58:11.057Z,3248.00
2019-05-03T04:59:11.035Z,3300.00
2019-05-03T05:00:11.799Z,3372.00
2019-05-03T05:01:11.002Z,3416.00
2019-05-03T05:02:10.992Z,3424.00
2019-05-03T05:03:11.001Z,3380.00
2019-05-03T05:04:10.968Z,3232.00
2019-05-03T05:05:10.957Z,3084.00
2019-05-03T05:06:10.945Z,2976.00
2019-05-03T05:07:10.935Z,2920.00
2019-05-03T05:08:10.941Z,2892.00
2019-05-03T05:09:10.915Z,2660.00
2019-05-03T05:10:10.899Z,2544.00
2019-05-03T05:11:10.892Z,2556.00
2019-05-03T05:12:10.878Z,2428.00
2019-05-03T05:13:10.884Z,2456.00
2019-05-03T05:14:10.851Z,2692.00
2019-05-03T05:15:10.840Z,3012.00
2019-05-03T05:16:10.830Z,3316.00
2019-05-03T05:17:10.817Z,3452.00
2019-05-03T05:18:10.830Z,3548.00
2019-05-03T05:19:10.792Z,3536.00
2019-05-03T05:20:10.784Z,3472.00
2019-05-03T05:21:10.780Z,3224.00
2019-05-03T05:22:10.775Z,2780.00
2019-05-03T05:23:10.771Z,2600.00
2019-05-03T05:24:10.734Z,2680.00
2019-05-03T05:25:10.727Z,2744.00
2019-05-03T05:26:10.714Z,2792.00
2019-05-03T05:27:10.699Z,2948.00
2019-05-03T05:28:10.690Z,3224.00
2019-05-03T05:29:10.694Z,3512.00
2019-05-03T05:30:10.715Z,3768.00
2019-05-03T05:31:10.652Z,3976.00
2019-05-03T05:32:10.642Z,4072.00
2019-05-03T05:33:10.630Z,4292.00
2019-05-03T05:34:10.638Z,4688.00
2019-05-03T05:35:10.606Z,4908.00
2019-05-03T05:36:10.598Z,4592.00
2019-05-03T05:37:10.582Z,4144.00
2019-05-03T05:38:10.571Z,4100.00
2019-05-03T05:39:10.581Z,4352.00
2019-05-03T05:40:10.548Z,4640.00
2019-05-03T05:41:10.540Z,4996.00
2019-05-03T05:42:10.525Z,5732.00
2019-05-03T05:43:10.513Z,6304.00
2019-05-03T05:44:10.535Z,5928.00
2019-05-03T05:45:10.492Z,5236.00
2019-05-03T05:46:10.477Z,4576.00
2019-05-03T05:47:10.466Z,4500.00
2019-05-03T05:48:10.457Z,4628.00
2019-05-03T05:49:10.465Z,4352.00
2019-05-03T05:50:10.434Z,4144.00
2019-05-03T05:51:13.410Z,4104.00
2019-05-03T05:52:10.408Z,4228.00
2019-05-03T05:53:10.398Z,4512.00
2019-05-03T05:54:10.408Z,5068.00
2019-05-03T05:55:10.376Z,5328.00
2019-05-03T05:56:10.361Z,5328.00
2019-05-03T05:57:10.352Z,5308.00
2019-05-03T05:58:10.341Z,5400.00
2019-05-03T05:59:10.368Z,5504.00
2019-05-03T06:00:10.326Z,5676.00
2019-05-03T06:01:10.303Z,5976.00
2019-05-03T06:02:10.296Z,6332.00
2019-05-03T06:03:10.282Z,6328.00
2019-05-03T06:04:10.286Z,6612.00
2019-05-03T06:05:10.258Z,7140.00
2019-05-03T06:06:10.247Z,7392.00
2019-05-03T06:07:10.233Z,7956.00
2019-05-03T06:08:10.229Z,8584.00
2019-05-03T06:09:10.234Z,9160.00
2019-05-03T06:10:10.199Z,9864.00
2019-05-03T06:11:10.191Z,10264.00
2019-05-03T06:12:10.180Z,10156.00
2019-05-03T06:13:10.174Z,9296.00
2019-05-03T06:14:10.156Z,8920.00
2019-05-03T06:15:10.166Z,9080.00
2019-05-03T06:16:10.137Z,9256.00
2019-05-03T06:17:10.121Z,9128.00
2019-05-03T06:18:10.129Z,9184.00
2019-05-03T06:19:10.098Z,9192.00
2019-05-03T06:20:10.106Z,9692.00
2019-05-03T06:21:10.077Z,10492.00
2019-05-03T06:22:10.065Z,10624.00
2019-05-03T06:23:10.055Z,11008.00
2019-05-03T06:24:10.042Z,11008.00
2019-05-03T06:25:10.050Z,11132.00
2019-05-03T06:26:10.022Z,10988.00
2019-05-03T06:27:10.010Z,10520.00
2019-05-03T06:28:19.951Z,10996.00
2019-05-03T06:29:10.984Z,12256.00
2019-05-03T06:30:09.999Z,13128.00
2019-05-03T06:31:09.964Z,14644.00
2019-05-03T06:32:09.953Z,14548.00
2019-05-03T06:33:09.951Z,17696.00
2019-05-03T06:34:09.931Z,17728.00
2019-05-03T06:35:09.917Z,20672.00
2019-05-03T06:36:09.925Z,19040.00
2019-05-03T06:37:09.909Z,22752.00
2019-05-03T06:38:09.883Z,38752.00
2019-05-03T06:39:09.873Z,31136.00
2019-05-03T06:40:09.860Z,24064.00
2019-05-03T06:41:09.867Z,24352.00
2019-05-03T06:42:14.508Z,41888.00
2019-05-03T06:43:12.875Z,18048.00
2019-05-03T06:44:09.814Z,16736.00
2019-05-03T06:45:11.671Z,21984.00
2019-05-03T06:46:09.807Z,13540.00
2019-05-03T06:47:10.527Z,13964.00
2019-05-03T06:48:09.766Z,14160.00
2019-05-03T06:49:10.103Z,16188.00
2019-05-03T06:50:09.744Z,21120.00
2019-05-03T06:51:12.566Z,17760.00
2019-05-03T06:52:10.746Z,17152.00
2019-05-03T06:53:12.863Z,19968.00
2019-05-03T06:54:09.698Z,19680.00
2019-05-03T06:55:10.867Z,21024.00
2019-05-03T06:56:09.675Z,18784.00
2019-05-03T06:57:09.869Z,17152.00
2019-05-03T06:58:09.653Z,15860.00
2019-05-03T06:59:09.642Z,15416.00
2019-05-03T07:00:09.627Z,15584.00
2019-05-03T07:01:11.312Z,17408.00
2019-05-03T07:02:09.627Z,41408.00
2019-05-03T07:03:09.593Z,27808.00
2019-05-03T07:04:09.582Z,106528.00
2019-05-03T07:05:09.572Z,33952.00
2019-05-03T07:06:09.561Z,17568.00
2019-05-03T07:07:09.570Z,15320.00
2019-05-03T07:08:09.537Z,14016.00
2019-05-03T07:09:09.527Z,13740.00
2019-05-03T07:10:09.515Z,13592.00
2019-05-03T07:11:09.501Z,12732.00
2019-05-03T07:12:09.492Z,11068.00
2019-05-03T07:13:09.497Z,9552.00
2019-05-03T07:14:09.466Z,8384.00
2019-05-03T07:15:09.455Z,7092.00
2019-05-03T07:16:09.444Z,6768.00
2019-05-03T07:17:09.433Z,8216.00
2019-05-03T07:18:09.440Z,10180.00
2019-05-03T07:19:09.406Z,11296.00
2019-05-03T07:20:09.398Z,11404.00
2019-05-03T07:21:09.386Z,11508.00
2019-05-03T07:22:09.387Z,13100.00
2019-05-03T07:23:09.381Z,14768.00
2019-05-03T07:24:09.357Z,15372.00
2019-05-03T07:25:09.339Z,14852.00
2019-05-03T07:26:09.326Z,13424.00
2019-05-03T07:27:09.317Z,13208.00
2019-05-03T07:28:09.324Z,14564.00
2019-05-03T07:29:09.301Z,17440.00
2019-05-03T07:30:09.282Z,18880.00
2019-05-03T07:31:09.270Z,19936.00
2019-05-03T07:32:09.258Z,20640.00
2019-05-03T07:33:09.268Z,21376.00
2019-05-03T07:34:09.237Z,22080.00
2019-05-03T07:35:09.225Z,22880.00
2019-05-03T07:36:09.215Z,22208.00
2019-05-03T07:37:09.203Z,25792.00
2019-05-03T07:38:09.207Z,28224.00
2019-05-03T07:39:09.181Z,45504.00
2019-05-03T07:40:09.167Z,50400.00
2019-05-03T07:41:09.156Z,54080.00
2019-05-03T07:42:09.144Z,51168.00
2019-05-03T07:43:09.149Z,13552.00
2019-05-03T07:44:09.121Z,12716.00
2019-05-03T07:45:09.110Z,14596.00
2019-05-03T07:46:09.099Z,16228.00
2019-05-03T07:47:09.087Z,17600.00
2019-05-03T07:48:09.100Z,21600.00
2019-05-03T07:49:09.069Z,22080.00
2019-05-03T07:50:09.056Z,22272.00
2019-05-03T07:51:09.043Z,24352.00
2019-05-03T07:52:11.756Z,38592.00
2019-05-03T07:53:09.018Z,62880.00
2019-05-03T07:54:09.027Z,30880.00
2019-05-03T07:55:09.003Z,26880.00
2019-05-03T07:56:08.989Z,26720.00
2019-05-03T07:57:08.974Z,27200.00
2019-05-03T07:58:08.960Z,26400.00
2019-05-03T07:59:08.968Z,26048.00
2019-05-03T08:00:08.937Z,43488.00
2019-05-03T08:01:10.130Z,25024.00
2019-05-03T08:02:08.914Z,25120.00
2019-05-03T08:03:08.903Z,27040.00
2019-05-03T08:04:08.925Z,42336.00
2019-05-03T08:05:08.880Z,29504.00
2019-05-03T08:06:08.865Z,24896.00
2019-05-03T08:07:19.945Z,22688.00
2019-05-03T08:08:09.847Z,21056.00
2019-05-03T08:09:08.851Z,20096.00
2019-05-03T08:10:08.825Z,20832.00
2019-05-03T08:11:08.808Z,21728.00
2019-05-03T08:12:08.797Z,22560.00
2019-05-03T08:13:08.787Z,23200.00
2019-05-03T08:14:08.794Z,24192.00
2019-05-03T08:15:08.762Z,27456.00
2019-05-03T08:16:08.753Z,29632.00
2019-05-03T08:17:08.738Z,30720.00
2019-05-03T08:18:08.728Z,28672.00
2019-05-03T08:19:08.739Z,28864.00
2019-05-03T08:20:08.707Z,34496.00
2019-05-03T08:21:08.697Z,23936.00
2019-05-03T08:22:08.681Z,23712.00
2019-05-03T08:23:08.673Z,24320.00
2019-05-03T08:24:08.678Z,25600.00
2019-05-03T08:25:08.647Z,73952.00
2019-05-03T08:26:08.638Z,29664.00
2019-05-03T08:27:08.624Z,29824.00
2019-05-03T08:28:08.612Z,29760.00
2019-05-03T08:29:16.080Z,59296.00
2019-05-03T08:30:09.590Z,28960.00
2019-05-03T08:31:08.577Z,96800.00
2019-05-03T08:32:08.568Z,104352.00
2019-05-03T08:33:08.553Z,90720.00
2019-05-03T08:34:08.561Z,117472.00
2019-05-03T08:35:08.533Z,120544.00
2019-05-03T08:36:08.520Z,44096.00
2019-05-03T08:37:08.511Z,42720.00
2019-05-03T08:38:08.499Z,35264.00
2019-05-03T08:39:08.514Z,23616.00
2019-05-03T08:40:08.475Z,21760.00
2019-05-03T08:41:08.463Z,19648.00
2019-05-03T08:42:08.455Z,19840.00
2019-05-03T08:43:08.443Z,18880.00
2019-05-03T08:44:08.430Z,15880.00
2019-05-03T08:45:08.466Z,14220.00
2019-05-03T08:46:08.406Z,13300.00
2019-05-03T08:47:08.397Z,11944.00
2019-05-03T08:48:08.390Z,10800.00
2019-05-03T08:49:08.371Z,9700.00
2019-05-03T08:50:08.378Z,9064.00
2019-05-03T08:51:08.349Z,8904.00
2019-05-03T08:52:08.338Z,9200.00
2019-05-03T08:53:08.329Z,9844.00
2019-05-03T08:54:08.315Z,10912.00
2019-05-03T08:55:08.321Z,12148.00
2019-05-03T08:56:08.293Z,13384.00
2019-05-03T08:57:08.278Z,15480.00
2019-05-03T08:58:08.311Z,17600.00
2019-05-03T08:59:08.258Z,19808.00
2019-05-03T09:00:08.263Z,23232.00
2019-05-03T09:01:08.232Z,27488.00
2019-05-03T09:02:17.422Z,39616.00
2019-05-03T09:03:09.210Z,31008.00
2019-05-03T09:04:08.200Z,81440.00
2019-05-03T09:05:08.206Z,137536.00
2019-05-03T09:06:08.174Z,137600.00
2019-05-03T09:07:08.163Z,135296.00
2019-05-03T09:08:08.155Z,130592.00
2019-05-03T09:09:08.140Z,127200.00
2019-05-03T09:10:12.341Z,129120.00
2019-05-03T09:11:09.119Z,122368.00
2019-05-03T09:12:08.109Z,123136.00
2019-05-03T09:13:08.099Z,117376.00
2019-05-03T09:14:08.083Z,114400.00
2019-05-03T09:15:08.095Z,111904.00
2019-05-03T09:16:08.133Z,54720.00
2019-05-03T09:17:08.050Z,114240.00
2019-05-03T09:18:08.040Z,121152.00
2019-05-03T09:19:08.032Z,37792.00
2019-05-03T09:20:08.015Z,118144.00
2019-05-03T09:21:08.023Z,91968.00
2019-05-03T09:22:07.997Z,30080.00
2019-05-03T09:23:07.983Z,25888.00
2019-05-03T09:24:07.971Z,23296.00
2019-05-03T09:25:07.965Z,20320.00
2019-05-03T09:26:07.967Z,17472.00
2019-05-03T09:27:07.944Z,15196.00
2019-05-03T09:28:07.925Z,13368.00
2019-05-03T09:29:07.913Z,12148.00
2019-05-03T09:30:07.903Z,11940.00
2019-05-03T09:31:07.910Z,11776.00
2019-05-03T09:32:07.881Z,11912.00
2019-05-03T09:33:09.143Z,12088.00
2019-05-03T09:34:08.384Z,12120.00
2019-05-03T09:35:07.848Z,12316.00
2019-05-03T09:36:07.861Z,12432.00
2019-05-03T09:37:07.823Z,12176.00
2019-05-03T09:38:07.813Z,11492.00
2019-05-03T09:39:07.800Z,10816.00
2019-05-03T09:40:07.788Z,10352.00
2019-05-03T09:41:07.802Z,10568.00
2019-05-03T09:42:07.765Z,11400.00
2019-05-03T09:43:07.755Z,13852.00
2019-05-03T09:44:07.742Z,16796.00
2019-05-03T09:45:07.732Z,19936.00
2019-05-03T09:46:07.720Z,25024.00
2019-05-03T09:47:07.727Z,37248.00
2019-05-03T09:48:07.696Z,101024.00
2019-05-03T09:49:13.200Z,120384.00
2019-05-03T09:50:08.674Z,45728.00
2019-05-03T09:51:07.662Z,115040.00
2019-05-03T09:52:08.616Z,53536.00
2019-05-03T09:53:09.098Z,25952.00
2019-05-03T09:54:07.629Z,22208.00
2019-05-03T09:55:07.617Z,22400.00
2019-05-03T09:56:07.608Z,24544.00
2019-05-03T09:57:07.616Z,27712.00
2019-05-03T09:58:07.585Z,76160.00
2019-05-03T10:00:00.065Z,49984.00
2019-05-03T10:00:57.125Z,52032.00
2019-05-03T10:01:57.109Z,76352.00
2019-05-03T10:02:57.134Z,70752.00
2019-05-03T10:03:57.091Z,43936.00
2019-05-03T10:04:57.077Z,79040.00
2019-05-03T10:05:57.066Z,40256.00
2019-05-03T10:06:57.058Z,43136.00
2019-05-03T10:07:57.065Z,38592.00
2019-05-03T10:08:57.035Z,35136.00
2019-05-03T10:09:57.020Z,54048.00
2019-05-03T10:10:57.021Z,83520.00
2019-05-03T10:11:57.000Z,78944.00
2019-05-03T10:12:57.022Z,59200.00
2019-05-03T10:13:56.974Z,69760.00
2019-05-03T10:14:56.964Z,76384.00
2019-05-03T10:15:56.961Z,83968.00
2019-05-03T10:16:56.942Z,95392.00
2019-05-03T10:17:56.972Z,98944.00
2019-05-03T10:18:56.919Z,97888.00
2019-05-03T10:19:56.908Z,86688.00
2019-05-03T10:20:56.898Z,47168.00
2019-05-03T10:21:56.886Z,47168.00
2019-05-03T10:22:56.874Z,93120.00
2019-05-03T10:23:56.883Z,96704.00
2019-05-03T10:24:56.854Z,33344.00
2019-05-03T10:25:56.843Z,26240.00
2019-05-03T10:26:56.829Z,24512.00
2019-05-03T10:27:56.821Z,24928.00
2019-05-03T10:28:56.827Z,28544.00
2019-05-03T10:30:09.652Z,24192.00
2019-05-03T10:30:57.784Z,24064.00
2019-05-03T10:31:56.773Z,24064.00
2019-05-03T10:32:56.760Z,27648.00
2019-05-03T10:33:56.769Z,76512.00
2019-05-03T10:34:56.736Z,65568.00
2019-05-03T10:35:56.727Z,26688.00
2019-05-03T10:36:56.715Z,25760.00
2019-05-03T10:37:56.707Z,22464.00
2019-05-03T10:38:56.719Z,23552.00
2019-05-03T10:39:56.683Z,25728.00
2019-05-03T10:40:56.673Z,30528.00
2019-05-03T10:41:56.661Z,38400.00
2019-05-03T10:42:56.648Z,29376.00
2019-05-03T10:43:56.660Z,27040.00
2019-05-03T10:44:56.626Z,27392.00
2019-05-03T10:45:56.612Z,28288.00
2019-05-03T10:46:56.602Z,28096.00
2019-05-03T10:47:56.589Z,27552.00
2019-05-03T10:48:56.597Z,26880.00
2019-05-03T10:49:56.570Z,25152.00
2019-05-03T10:50:56.631Z,22016.00
2019-05-03T10:51:56.545Z,19936.00
2019-05-03T10:52:56.537Z,18368.00
2019-05-03T10:53:56.543Z,17344.00
2019-05-03T10:54:56.510Z,17184.00
2019-05-03T10:55:56.500Z,17952.00
2019-05-03T10:56:56.510Z,19200.00
2019-05-03T10:57:56.475Z,21184.00
2019-05-03T10:58:56.487Z,24832.00
2019-05-03T10:59:56.450Z,24064.00
2019-05-03T11:00:56.816Z,27936.00
2019-05-03T11:01:56.428Z,35200.00
2019-05-03T11:02:56.415Z,26400.00
2019-05-03T11:03:56.405Z,42816.00
2019-05-03T11:04:56.413Z,32896.00
2019-05-03T11:05:56.379Z,40640.00
2019-05-03T11:06:56.368Z,57952.00
2019-05-03T11:07:56.357Z,89600.00
2019-05-03T11:08:56.344Z,84000.00
2019-05-03T11:09:56.360Z,57824.00
2019-05-03T11:10:56.326Z,36640.00
2019-05-03T11:11:56.314Z,31648.00
2019-05-03T11:12:56.302Z,28896.00
2019-05-03T11:13:56.289Z,26272.00
2019-05-03T11:14:56.296Z,23968.00
2019-05-03T11:15:56.266Z,21440.00
2019-05-03T11:16:56.256Z,21088.00
2019-05-03T11:17:56.245Z,23648.00
2019-05-03T11:18:56.234Z,64224.00
2019-05-03T11:19:56.240Z,74496.00
2019-05-03T11:20:56.211Z,72480.00
2019-05-03T11:21:56.198Z,76864.00
2019-05-03T11:22:56.185Z,48320.00
2019-05-03T11:23:56.176Z,42400.00
2019-05-03T11:24:56.188Z,78432.00
2019-05-03T11:25:56.157Z,63744.00
2019-05-03T11:26:56.143Z,80160.00
2019-05-03T11:27:56.138Z,79072.00
2019-05-03T11:29:00.408Z,41504.00
2019-05-03T11:29:59.029Z,84960.00
2019-05-03T11:31:01.924Z,87104.00
2019-05-03T11:31:57.082Z,82912.00
2019-05-03T11:32:56.074Z,53440.00
2019-05-03T11:33:56.064Z,67360.00
2019-05-03T11:34:56.072Z,27936.00
2019-05-03T11:35:56.040Z,27232.00
2019-05-03T11:36:56.031Z,24736.00
2019-05-03T11:37:56.019Z,22592.00
2019-05-03T11:38:56.010Z,19648.00
2019-05-03T11:39:56.037Z,17536.00
2019-05-03T11:40:56.185Z,15948.00
2019-05-03T11:41:55.971Z,14556.00
2019-05-03T11:42:55.965Z,13800.00
2019-05-03T11:43:55.950Z,14796.00
2019-05-03T11:44:55.936Z,17568.00
2019-05-03T11:45:55.944Z,20896.00
2019-05-03T11:46:55.918Z,23680.00
2019-05-03T11:47:55.902Z,26048.00
2019-05-03T11:48:55.893Z,32448.00
2019-05-03T11:49:55.880Z,35616.00
2019-05-03T11:50:55.887Z,39040.00
2019-05-03T11:51:55.857Z,59840.00
2019-05-03T11:52:55.846Z,45696.00
2019-05-03T11:53:55.834Z,58976.00
2019-05-03T11:54:55.824Z,39712.00
2019-05-03T11:55:55.832Z,40768.00
2019-05-03T11:56:55.802Z,49088.00
2019-05-03T11:57:56.627Z,127904.00
2019-05-03T11:58:55.777Z,121568.00
2019-05-03T11:59:55.766Z,120160.00
2019-05-03T12:01:10.857Z,107808.00
2019-05-03T12:01:56.742Z,101312.00
2019-05-03T12:02:55.738Z,96352.00
2019-05-03T12:03:55.725Z,98432.00
2019-05-03T12:04:55.709Z,80224.00
2019-05-03T12:05:55.741Z,70912.00
2019-05-03T12:06:55.686Z,80768.00
2019-05-03T12:07:55.681Z,52192.00
2019-05-03T12:08:55.664Z,71328.00
2019-05-03T12:09:55.694Z,38880.00
2019-05-03T12:11:01.151Z,56576.00
2019-05-03T12:11:56.645Z,125024.00
2019-05-03T12:12:55.623Z,49216.00
2019-05-03T12:14:03.870Z,43744.00
2019-05-03T12:14:56.594Z,53184.00
2019-05-03T12:15:55.582Z,47488.00
2019-05-03T12:17:16.164Z,59904.00
2019-05-03T12:17:59.006Z,31808.00